Time;durP1;ratioP1;P1;durP2;ratioP2;P2;SDS_P1;SDS_P2;PMS_P1;PMS_P2;Temp;Humidity;BMP_temperature;BMP_pressure;BME280_temperature;BME280_humidity;BME280_pressure;Samples;Min_cycle;Max_cycle;Signal;HPM_P1;HPM_P2
2024/03/24 00:02:02;;;;;;;2.30;0.77;;;9.80;67.60;;;;;;2367594;53;21877;-65
2024/03/24 00:04:29;;;;;;;2.30;0.75;;;9.80;67.60;;;;;;2368732;53;21032;-64
2024/03/24 00:06:55;;;;;;;2.70;0.70;;;9.80;67.50;;;;;;2368904;53;20989;-64
2024/03/24 00:09:21;;;;;;;4.10;0.88;;;9.80;67.50;;;;;;2371861;53;21900;-66
2024/03/24 00:11:48;;;;;;;2.65;0.75;;;9.80;67.50;;;;;;2346838;53;21623;-65
2024/03/24 00:14:15;;;;;;;1.37;0.62;;;9.90;67.60;;;;;;2368233;53;21001;-65
2024/03/24 00:16:41;;;;;;;1.98;0.75;;;9.90;67.60;;;;;;2369169;53;21033;-65
2024/03/24 00:19:07;;;;;;;2.85;0.90;;;9.80;67.50;;;;;;2368469;53;20954;-67
2024/03/24 00:21:34;;;;;;;1.15;0.50;;;9.90;67.60;;;;;;2369097;53;21901;-66
2024/03/24 00:24:01;;;;;;;2.12;0.68;;;9.90;67.70;;;;;;2369491;53;20942;-66
2024/03/24 00:26:29;;;;;;;1.90;0.70;;;9.90;67.70;;;;;;2368960;53;20989;-66
2024/03/24 00:28:56;;;;;;;2.22;0.60;;;9.90;67.50;;;;;;2368493;53;20970;-64
2024/03/24 00:31:25;;;;;;;1.65;0.70;;;9.90;67.50;;;;;;2367844;53;20930;-65
2024/03/24 00:33:52;;;;;;;1.90;0.77;;;9.90;67.50;;;;;;2368628;53;20934;-66
2024/03/24 00:36:18;;;;;;;1.10;0.40;;;9.90;67.60;;;;;;2369222;53;20985;-66
2024/03/24 00:38:44;;;;;;;1.52;0.50;;;9.90;67.60;;;;;;2349924;54;20975;-65
2024/03/24 00:41:10;;;;;;;1.85;0.70;;;9.90;67.40;;;;;;2349564;53;22168;-66
2024/03/24 00:43:38;;;;;;;1.62;0.60;;;9.90;67.40;;;;;;2347495;54;21022;-66
2024/03/24 00:46:04;;;;;;;1.35;0.55;;;9.90;67.30;;;;;;2368408;53;21403;-65
2024/03/24 00:48:30;;;;;;;0.98;0.47;;;9.90;67.30;;;;;;2368793;53;20977;-65
2024/03/24 00:50:57;;;;;;;1.27;0.45;;;9.90;67.30;;;;;;2359648;53;20963;-65
2024/03/24 00:53:23;;;;;;;1.65;0.60;;;9.90;67.30;;;;;;2358332;53;21034;-65
2024/03/24 00:55:49;;;;;;;1.52;0.55;;;9.90;67.20;;;;;;2368890;53;21036;-64
2024/03/24 00:58:16;;;;;;;0.80;0.40;;;9.90;68.00;;;;;;2369198;53;20942;-65
2024/03/24 01:00:44;;;;;;;1.73;0.50;;;9.90;67.30;;;;;;2369485;53;21514;-66
2024/03/24 01:03:10;;;;;;;1.33;0.50;;;9.90;67.30;;;;;;2369106;53;20954;-65
2024/03/24 01:05:37;;;;;;;2.33;0.50;;;9.90;67.30;;;;;;2369327;53;21014;-66
2024/03/24 01:08:04;;;;;;;0.82;0.50;;;9.90;67.30;;;;;;2368600;53;21316;-65
2024/03/24 01:10:30;;;;;;;1.73;0.50;;;9.90;67.20;;;;;;2368800;53;21284;-65
2024/03/24 01:12:58;;;;;;;2.03;0.50;;;9.90;67.20;;;;;;2369443;53;21285;-65
2024/03/24 01:15:24;;;;;;;1.10;0.50;;;9.90;67.20;;;;;;2365994;53;21320;-65
2024/03/24 01:17:50;;;;;;;1.87;0.70;;;9.90;67.20;;;;;;2368993;53;20974;-66
2024/03/24 01:20:18;;;;;;;0.98;0.50;;;9.90;67.20;;;;;;2367725;53;21038;-66
2024/03/24 01:22:45;;;;;;;1.62;0.77;;;9.90;67.20;;;;;;2369013;53;21424;-66
2024/03/24 01:25:12;;;;;;;1.48;0.57;;;9.90;67.20;;;;;;2368843;53;21286;-65
2024/03/24 01:27:38;;;;;;;1.73;0.65;;;9.90;67.20;;;;;;2369462;53;21077;-64
2024/03/24 01:30:05;;;;;;;2.50;0.93;;;9.90;67.20;;;;;;2368389;53;20938;-65
2024/03/24 01:32:32;;;;;;;1.40;0.60;;;9.90;67.20;;;;;;2367479;53;20946;-66
2024/03/24 01:34:58;;;;;;;1.10;0.50;;;9.90;67.20;;;;;;2369539;53;21289;-66
2024/03/24 01:37:24;;;;;;;1.62;0.50;;;9.90;67.10;;;;;;2368824;53;20992;-65
2024/03/24 01:39:50;;;;;;;1.65;0.60;;;9.90;67.10;;;;;;2369190;53;20962;-66
2024/03/24 01:42:17;;;;;;;1.20;0.55;;;9.90;67.00;;;;;;2369145;53;21006;-65
2024/03/24 01:44:44;;;;;;;2.42;0.60;;;9.90;67.00;;;;;;2368532;53;21001;-65
2024/03/24 01:47:11;;;;;;;2.35;0.70;;;9.90;67.00;;;;;;2368669;53;20990;-64
2024/03/24 01:49:38;;;;;;;2.30;0.80;;;9.90;67.00;;;;;;2370278;53;21889;-66
2024/03/24 01:52:06;;;;;;;2.45;0.70;;;9.90;67.10;;;;;;2368958;53;20938;-66
2024/03/24 01:54:36;;;;;;;2.42;0.70;;;9.90;67.10;;;;;;2368947;53;20938;-65
2024/03/24 01:57:04;;;;;;;1.60;0.65;;;9.90;67.10;;;;;;2353320;53;21000;-66
2024/03/24 01:59:30;;;;;;;2.17;0.57;;;9.80;66.90;;;;;;2364482;53;21013;-64
2024/03/24 02:01:56;;;;;;;2.17;0.62;;;9.80;66.80;;;;;;2369311;53;20973;-65
2024/03/24 02:04:23;;;;;;;1.23;0.50;;;9.80;66.80;;;;;;2369284;53;20930;-66
2024/03/24 02:06:50;;;;;;;1.70;0.57;;;9.80;66.70;;;;;;2350148;53;20993;-66
2024/03/24 02:09:17;;;;;;;1.25;0.40;;;9.80;66.70;;;;;;2369155;53;21706;-65
2024/03/24 02:11:44;;;;;;;1.15;0.43;;;9.80;66.70;;;;;;2369095;53;20950;-65
2024/03/24 02:14:10;;;;;;;0.50;0.30;;;9.70;66.60;;;;;;2368795;53;21494;-65
2024/03/24 02:16:37;;;;;;;1.50;0.62;;;9.70;66.50;;;;;;2369029;53;20929;-66
2024/03/24 02:19:03;;;;;;;1.62;0.52;;;9.70;66.60;;;;;;2369001;53;21009;-66
2024/03/24 02:21:30;;;;;;;1.23;0.45;;;9.70;66.60;;;;;;2365567;53;20991;-65
2024/03/24 02:23:56;;;;;;;1.42;0.43;;;9.70;66.60;;;;;;2352375;53;20942;-64
2024/03/24 02:26:23;;;;;;;1.15;0.50;;;9.70;66.60;;;;;;2369079;53;21064;-65
2024/03/24 02:28:49;;;;;;;0.93;0.40;;;9.70;66.60;;;;;;2369294;53;20997;-65
2024/03/24 02:31:16;;;;;;;1.48;0.50;;;9.60;66.60;;;;;;2350161;53;20923;-66
2024/03/24 02:33:42;;;;;;;1.02;0.40;;;9.60;66.60;;;;;;2367554;53;21009;-65
2024/03/24 02:36:09;;;;;;;0.98;0.40;;;9.60;66.60;;;;;;2369145;53;21002;-65
2024/03/24 02:38:35;;;;;;;0.73;0.30;;;9.60;66.60;;;;;;2368056;53;21269;-65
2024/03/24 02:41:02;;;;;;;2.78;0.50;;;9.60;66.70;;;;;;2368892;53;20997;-64
2024/03/24 02:43:28;;;;;;;2.35;0.50;;;9.60;66.60;;;;;;2369067;53;21013;-64
2024/03/24 02:45:55;;;;;;;1.42;0.50;;;9.60;66.60;;;;;;2369171;53;20950;-65
2024/03/24 02:48:22;;;;;;;1.33;0.40;;;9.60;66.60;;;;;;2369268;53;21772;-65
2024/03/24 02:50:48;;;;;;;0.85;0.40;;;9.60;66.60;;;;;;2369024;53;21419;-66
2024/03/24 02:53:15;;;;;;;1.90;0.40;;;9.60;66.50;;;;;;2368959;53;21042;-66
2024/03/24 02:55:47;;;;;;;1.12;0.40;;;9.50;66.50;;;;;;2368399;53;20942;-64
2024/03/24 02:58:14;;;;;;;2.58;0.57;;;9.60;66.40;;;;;;2369005;53;20942;-65
2024/03/24 03:00:40;;;;;;;1.67;0.55;;;9.50;66.50;;;;;;2368787;53;20950;-65
2024/03/24 03:03:06;;;;;;;1.85;0.60;;;9.50;66.50;;;;;;2369113;53;21000;-65
2024/03/24 03:05:33;;;;;;;1.55;0.47;;;9.50;66.60;;;;;;2368761;53;20939;-66
2024/03/24 03:08:00;;;;;;;1.37;0.47;;;9.50;66.60;;;;;;2369705;53;20954;-66
2024/03/24 03:10:26;;;;;;;2.22;0.70;;;9.50;66.70;;;;;;2369045;53;20935;-65
2024/03/24 03:12:53;;;;;;;1.35;0.50;;;9.50;66.70;;;;;;2369305;53;21616;-66
2024/03/24 03:15:20;;;;;;;1.98;0.50;;;9.50;66.70;;;;;;2337321;54;21035;-65
2024/03/24 03:17:47;;;;;;;1.42;0.40;;;9.50;66.80;;;;;;2361781;53;20958;-65
2024/03/24 03:20:13;;;;;;;0.90;0.40;;;9.50;66.80;;;;;;2368234;53;20998;-65
2024/03/24 03:22:40;;;;;;;2.12;0.40;;;9.50;66.70;;;;;;2352218;53;21463;-65
2024/03/24 03:25:07;;;;;;;1.58;0.40;;;9.50;66.70;;;;;;2366541;53;21324;-66
2024/03/24 03:27:34;;;;;;;0.68;0.32;;;9.50;66.70;;;;;;2368855;53;20954;-65
2024/03/24 03:30:01;;;;;;;1.75;0.85;;;9.50;66.60;;;;;;2365489;53;20951;-65
2024/03/24 03:32:27;;;;;;;0.70;0.30;;;9.40;66.50;;;;;;2351763;53;20972;-66
2024/03/24 03:34:54;;;;;;;0.88;0.32;;;9.40;66.50;;;;;;2368711;53;21435;-65
2024/03/24 03:37:21;;;;;;;0.82;0.37;;;9.40;66.60;;;;;;2368796;53;20973;-65
2024/03/24 03:39:47;;;;;;;0.55;0.30;;;9.40;66.60;;;;;;2369365;53;21057;-66
2024/03/24 03:42:15;;;;;;;0.20;0.20;;;9.40;66.70;;;;;;2368980;53;21001;-65
2024/03/24 03:44:41;;;;;;;1.20;0.20;;;9.40;66.70;;;;;;2369041;53;20994;-65
2024/03/24 03:47:08;;;;;;;1.00;0.40;;;9.40;66.90;;;;;;2368636;53;20997;-66
2024/03/24 03:49:34;;;;;;;0.90;0.22;;;9.30;66.80;;;;;;2369138;53;21330;-64
2024/03/24 03:52:01;;;;;;;0.40;0.20;;;9.30;66.80;;;;;;2360578;53;20979;-65
2024/03/24 03:54:31;;;;;;;0.98;0.40;;;9.30;66.80;;;;;;2358419;53;21140;-65
2024/03/24 03:56:57;;;;;;;0.60;0.30;;;9.40;67.00;;;;;;2369268;53;20953;-65
2024/03/24 03:59:24;;;;;;;0.35;0.20;;;9.30;66.80;;;;;;2369532;53;21013;-65
2024/03/24 04:01:51;;;;;;;0.22;0.22;;;9.30;66.80;;;;;;2369204;53;20926;-66
2024/03/24 04:04:18;;;;;;;0.35;0.30;;;9.20;66.70;;;;;;2368949;53;21302;-65
2024/03/24 04:06:44;;;;;;;0.65;0.30;;;9.30;66.80;;;;;;2369154;53;21246;-65
2024/03/24 04:09:16;;;;;;;1.20;0.30;;;9.20;66.80;;;;;;2369094;53;20942;-65
2024/03/24 04:11:43;;;;;;;0.88;0.40;;;9.20;66.90;;;;;;2369227;53;21265;-63
2024/03/24 04:14:09;;;;;;;0.85;0.35;;;9.20;67.00;;;;;;2369327;53;20942;-66
2024/03/24 04:16:36;;;;;;;0.98;0.45;;;9.20;67.10;;;;;;2372706;53;20981;-66
2024/03/24 04:19:02;;;;;;;1.75;0.52;;;9.10;67.10;;;;;;2346501;53;21412;-65
2024/03/24 04:21:29;;;;;;;0.82;0.40;;;9.10;67.10;;;;;;2370111;54;21006;-65
2024/03/24 04:23:55;;;;;;;1.10;0.50;;;9.10;67.10;;;;;;2369724;53;21017;-66
2024/03/24 04:26:21;;;;;;;1.40;0.60;;;9.10;67.00;;;;;;2369535;53;22055;-65
2024/03/24 04:28:53;;;;;;;1.87;0.47;;;9.10;67.00;;;;;;2369300;53;20934;-67
2024/03/24 04:31:19;;;;;;;0.98;0.45;;;9.10;67.00;;;;;;2369070;53;21284;-66
2024/03/24 04:33:46;;;;;;;0.57;0.30;;;9.10;66.90;;;;;;2368832;53;21356;-67
2024/03/24 04:36:13;;;;;;;1.60;0.43;;;9.10;67.00;;;;;;2369222;53;21037;-66
2024/03/24 04:38:40;;;;;;;1.65;0.60;;;9.10;67.00;;;;;;2369235;53;20953;-66
2024/03/24 04:41:10;;;;;;;1.60;0.60;;;9.00;66.90;;;;;;2369113;53;20942;-67
2024/03/24 04:43:37;;;;;;;0.85;0.40;;;9.00;67.00;;;;;;2368937;53;21014;-67
2024/03/24 04:46:03;;;;;;;0.45;0.30;;;9.00;67.10;;;;;;2368267;53;20966;-64
2024/03/24 04:48:30;;;;;;;1.27;0.40;;;9.00;67.20;;;;;;2367131;53;20955;-67
2024/03/24 04:50:57;;;;;;;0.90;0.40;;;9.00;67.30;;;;;;2351333;53;21021;-66
2024/03/24 04:53:26;;;;;;;0.70;0.35;;;8.90;67.20;;;;;;2368075;53;20930;-66
2024/03/24 04:55:53;;;;;;;0.88;0.40;;;9.00;67.30;;;;;;2369032;53;20946;-67
2024/03/24 04:58:19;;;;;;;1.50;0.60;;;8.90;67.20;;;;;;2363641;53;20960;-66
2024/03/24 05:00:46;;;;;;;1.67;0.50;;;8.90;67.30;;;;;;2354392;53;21061;-65
2024/03/24 05:03:12;;;;;;;0.82;0.40;;;8.90;67.40;;;;;;2368833;53;21205;-66
2024/03/24 05:05:45;;;;;;;1.45;0.40;;;8.90;67.40;;;;;;2369302;53;20954;-67
2024/03/24 05:08:12;;;;;;;;;;;8.90;67.40;;;;;;2372237;53;21459;-65
2024/03/24 05:10:40;;;;;;;1.05;0.47;;;8.90;66.90;;;;;;2369088;53;20097;-66
2024/03/24 05:13:08;;;;;;;1.33;0.55;;;8.90;67.40;;;;;;2368868;53;20949;-66
2024/03/24 05:15:39;;;;;;;1.67;0.47;;;8.90;67.50;;;;;;2369357;53;20925;-66
2024/03/24 05:18:07;;;;;;;1.37;0.50;;;8.80;67.50;;;;;;2368367;53;21855;-66
2024/03/24 05:20:37;;;;;;;1.52;0.60;;;8.80;67.60;;;;;;2369126;53;21487;-66
2024/03/24 05:23:03;;;;;;;0.95;0.40;;;8.80;67.60;;;;;;2368068;53;21001;-66
2024/03/24 05:25:30;;;;;;;1.30;0.50;;;8.80;67.70;;;;;;2349506;54;21434;-65
2024/03/24 05:27:59;;;;;;;1.60;0.52;;;8.80;67.60;;;;;;2349572;53;20975;-66
2024/03/24 05:30:26;;;;;;;1.87;0.57;;;8.90;67.70;;;;;;2349684;53;20915;-66
2024/03/24 05:32:52;;;;;;;1.17;0.55;;;8.80;67.60;;;;;;2367407;53;20985;-66
2024/03/24 05:35:18;;;;;;;0.80;0.40;;;8.80;67.60;;;;;;2370149;53;21704;-66
2024/03/24 05:37:45;;;;;;;0.85;0.32;;;8.80;67.60;;;;;;2348381;53;22000;-67
2024/03/24 05:40:13;;;;;;;1.25;0.40;;;8.80;67.70;;;;;;2368264;53;20942;-66
2024/03/24 05:42:40;;;;;;;1.25;0.40;;;8.80;67.70;;;;;;2369111;53;20942;-67
2024/03/24 05:45:07;;;;;;;0.75;0.35;;;8.80;67.70;;;;;;2368844;53;21404;-66
2024/03/24 05:47:33;;;;;;;1.92;0.52;;;8.80;67.70;;;;;;2369624;53;20922;-65
2024/03/24 05:50:01;;;;;;;1.58;0.50;;;8.80;67.70;;;;;;2368271;53;20964;-67
2024/03/24 05:52:27;;;;;;;1.02;0.40;;;8.90;67.90;;;;;;2350241;53;21419;-66
2024/03/24 05:54:53;;;;;;;1.60;0.50;;;8.80;67.80;;;;;;2369304;53;20930;-66
2024/03/24 05:57:20;;;;;;;0.85;0.40;;;8.80;67.90;;;;;;2369144;53;20986;-65
2024/03/24 05:59:46;;;;;;;2.17;0.50;;;8.80;67.80;;;;;;2349993;53;21235;-65
2024/03/24 06:02:12;;;;;;;1.50;0.50;;;8.80;67.90;;;;;;2368534;53;21451;-67
2024/03/24 06:04:40;;;;;;;1.12;0.50;;;8.80;67.90;;;;;;2369085;53;21433;-67
2024/03/24 06:07:07;;;;;;;2.17;0.70;;;8.80;68.00;;;;;;2368845;53;22031;-67
2024/03/24 06:09:36;;;;;;;2.30;0.50;;;8.80;68.00;;;;;;2368880;53;21565;-65
2024/03/24 06:12:02;;;;;;;3.05;0.60;;;8.80;68.10;;;;;;2369001;53;20934;-66
2024/03/24 06:14:29;;;;;;;1.10;0.50;;;8.80;68.10;;;;;;2369169;53;20965;-64
2024/03/24 06:16:56;;;;;;;0.75;0.40;;;8.80;68.10;;;;;;2369242;53;20946;-67
2024/03/24 06:19:22;;;;;;;1.00;0.50;;;8.90;68.30;;;;;;2368526;53;21064;-65
2024/03/24 06:21:53;;;;;;;2.75;0.60;;;8.90;68.40;;;;;;2369248;53;20966;-67
2024/03/24 06:24:19;;;;;;;1.55;0.50;;;8.90;68.40;;;;;;2370163;53;21272;-67
2024/03/24 06:26:46;;;;;;;1.30;0.50;;;8.90;68.30;;;;;;2368644;53;21006;-68
2024/03/24 06:29:13;;;;;;;2.20;0.65;;;8.90;68.40;;;;;;2368845;53;20938;-67
2024/03/24 06:31:39;;;;;;;1.33;0.50;;;8.90;68.30;;;;;;2368999;53;21814;-67
2024/03/24 06:34:07;;;;;;;2.40;0.77;;;9.00;68.40;;;;;;2349235;53;21019;-65
2024/03/24 06:36:40;;;;;;;1.15;0.40;;;9.00;68.50;;;;;;2368630;53;20958;-67
2024/03/24 06:39:06;;;;;;;;;;;9.00;68.50;;;;;;2352883;54;20985;-65
2024/03/24 06:41:38;;;;;;;1.73;0.57;;;9.10;67.90;;;;;;2369065;53;20050;-65
2024/03/24 06:44:16;;;;;;;3.10;0.47;;;9.00;68.40;;;;;;2368435;53;21827;-66
2024/03/24 06:46:44;;;;;;;1.42;0.60;;;9.10;68.40;;;;;;2368682;53;20966;-66
2024/03/24 06:49:13;;;;;;;2.37;0.68;;;9.10;68.50;;;;;;2368553;53;21264;-66
2024/03/24 06:51:40;;;;;;;2.78;0.70;;;9.10;68.50;;;;;;2369370;53;20954;-64
2024/03/24 06:54:06;;;;;;;6.70;0.70;;;9.10;68.50;;;;;;2369079;53;20958;-65
2024/03/24 06:56:32;;;;;;;1.80;0.50;;;9.20;68.50;;;;;;2368307;54;21420;-64
2024/03/24 06:58:59;;;;;;;2.95;0.75;;;9.20;68.50;;;;;;2368626;53;20930;-65
2024/03/24 07:01:25;;;;;;;1.67;0.60;;;9.20;68.50;;;;;;2368345;53;21432;-64
2024/03/24 07:03:51;;;;;;;1.30;0.60;;;9.20;68.40;;;;;;2368849;53;21052;-66
2024/03/24 07:06:18;;;;;;;2.05;0.65;;;9.30;68.40;;;;;;2369145;53;20934;-65
2024/03/24 07:08:44;;;;;;;2.60;0.70;;;9.30;68.30;;;;;;2369133;53;21451;-66
2024/03/24 07:11:13;;;;;;;2.72;0.68;;;9.30;68.20;;;;;;2368805;53;20938;-66
2024/03/24 07:13:39;;;;;;;0.98;0.52;;;9.30;68.20;;;;;;2369271;53;21271;-65
2024/03/24 07:16:06;;;;;;;2.37;0.80;;;9.40;68.20;;;;;;2368844;53;21001;-66
2024/03/24 07:18:32;;;;;;;1.48;0.68;;;9.40;68.10;;;;;;2369386;53;20970;-64
2024/03/24 07:21:02;;;;;;;4.43;1.00;;;9.40;68.00;;;;;;2369057;53;20998;-66
2024/03/24 07:23:32;;;;;;;2.28;0.88;;;9.40;67.70;;;;;;2368954;53;20950;-64
2024/03/24 07:25:58;;;;;;;2.28;0.90;;;9.40;67.60;;;;;;2369186;53;21021;-64
2024/03/24 07:28:24;;;;;;;2.30;0.68;;;9.40;67.40;;;;;;2368731;53;21423;-66
2024/03/24 07:30:51;;;;;;;1.95;0.73;;;9.40;67.40;;;;;;2365263;53;21725;-66
2024/03/24 07:33:17;;;;;;;1.90;0.70;;;9.40;67.30;;;;;;2352705;53;21002;-65
2024/03/24 07:35:43;;;;;;;2.55;0.60;;;9.40;67.40;;;;;;2354538;53;20936;-64
2024/03/24 07:38:14;;;;;;;4.80;0.90;;;9.40;67.40;;;;;;2363211;53;20989;-67
2024/03/24 07:40:40;;;;;;;1.95;0.60;;;9.40;67.30;;;;;;2367135;53;21355;-65
2024/03/24 07:43:08;;;;;;;2.33;0.73;;;9.40;67.40;;;;;;2350578;54;21001;-64
2024/03/24 07:45:34;;;;;;;2.08;0.57;;;9.40;67.60;;;;;;2367615;53;21471;-66
2024/03/24 07:48:00;;;;;;;2.72;0.73;;;9.40;67.70;;;;;;2363407;53;21164;-65
2024/03/24 07:50:27;;;;;;;3.37;0.85;;;9.50;67.80;;;;;;2353338;53;20998;-65
2024/03/24 07:52:53;;;;;;;1.85;0.73;;;9.50;67.90;;;;;;2369663;53;21443;-66
2024/03/24 07:55:21;;;;;;;2.15;0.77;;;9.50;67.90;;;;;;2368981;53;20950;-67
2024/03/24 07:57:47;;;;;;;2.10;0.80;;;9.50;67.80;;;;;;2369228;53;20998;-66
2024/03/24 08:00:14;;;;;;;1.98;0.70;;;9.60;67.80;;;;;;2360621;54;20991;-65
2024/03/24 08:02:40;;;;;;;2.97;0.80;;;9.60;67.80;;;;;;2337224;54;21298;-64
2024/03/24 08:05:07;;;;;;;3.92;0.98;;;9.60;67.80;;;;;;2368885;53;20998;-66
2024/03/24 08:07:33;;;;;;;2.08;0.68;;;9.60;67.70;;;;;;2369178;53;21336;-66
2024/03/24 08:09:59;;;;;;;2.00;0.73;;;9.70;67.70;;;;;;2368828;53;20954;-66
2024/03/24 08:12:26;;;;;;;3.12;0.90;;;9.70;67.70;;;;;;2368850;53;20926;-65
2024/03/24 08:14:53;;;;;;;2.03;0.70;;;9.70;67.50;;;;;;2369011;53;20941;-66
2024/03/24 08:17:19;;;;;;;2.17;0.60;;;9.80;67.50;;;;;;2368586;53;20938;-65
2024/03/24 08:19:46;;;;;;;1.30;0.57;;;9.80;67.40;;;;;;2368729;53;20938;-64
2024/03/24 08:22:12;;;;;;;2.45;0.62;;;9.90;67.40;;;;;;2369102;53;21022;-65
2024/03/24 08:24:39;;;;;;;2.70;0.80;;;9.90;67.30;;;;;;2369251;53;20933;-66
2024/03/24 08:27:10;;;;;;;2.85;0.60;;;9.90;67.30;;;;;;2368849;53;21045;-66
2024/03/24 08:29:36;;;;;;;3.22;0.73;;;10.00;66.20;;;;;;2369062;53;20982;-65
2024/03/24 08:32:02;;;;;;;2.08;0.65;;;10.00;66.10;;;;;;2369039;53;20953;-64
2024/03/24 08:34:29;;;;;;;2.00;0.60;;;10.10;66.20;;;;;;2368572;53;20962;-65
2024/03/24 08:36:55;;;;;;;2.20;0.75;;;10.10;66.20;;;;;;2369057;53;21012;-65
2024/03/24 08:39:21;;;;;;;2.05;0.52;;;10.20;66.10;;;;;;2368346;53;21010;-65
2024/03/24 08:41:49;;;;;;;2.90;0.70;;;10.20;66.10;;;;;;2368927;53;20965;-64
2024/03/24 08:44:17;;;;;;;2.05;0.80;;;10.20;65.90;;;;;;2368826;53;21342;-66
2024/03/24 08:46:43;;;;;;;2.72;0.77;;;10.30;65.90;;;;;;2369280;53;20945;-67
2024/03/24 08:49:10;;;;;;;2.92;0.62;;;10.30;66.10;;;;;;2349208;53;21425;-65
2024/03/24 08:51:37;;;;;;;1.20;0.50;;;10.40;65.90;;;;;;2347940;53;20998;-65
2024/03/24 08:54:03;;;;;;;3.47;1.00;;;10.40;65.70;;;;;;2368663;53;21407;-65
2024/03/24 08:56:30;;;;;;;2.03;0.70;;;10.30;65.00;;;;;;2368230;53;21510;-65
2024/03/24 08:58:57;;;;;;;1.65;0.60;;;10.50;65.10;;;;;;2368408;53;21577;-67
2024/03/24 09:01:23;;;;;;;1.58;0.50;;;10.50;65.10;;;;;;2368693;53;21057;-66
2024/03/24 09:03:50;;;;;;;3.62;0.70;;;10.50;65.10;;;;;;2369225;53;20922;-67
2024/03/24 09:06:16;;;;;;;1.80;0.70;;;10.60;65.20;;;;;;2369030;53;21214;-65
2024/03/24 09:08:43;;;;;;;2.12;0.93;;;10.60;65.10;;;;;;2369603;53;20998;-65
2024/03/24 09:11:09;;;;;;;2.85;1.12;;;10.60;65.00;;;;;;2368973;53;21001;-66
2024/03/24 09:13:36;;;;;;;2.97;1.15;;;10.60;64.90;;;;;;2368328;53;21029;-64
2024/03/24 09:16:06;;;;;;;4.25;1.60;;;10.70;65.00;;;;;;2368959;53;21035;-64
2024/03/24 09:18:35;;;;;;;8.07;3.50;;;10.70;64.90;;;;;;2369306;53;21017;-66
2024/03/24 09:21:05;;;;;;;9.32;3.03;;;10.70;64.70;;;;;;2349033;53;21226;-67
2024/03/24 09:23:32;;;;;;;5.20;2.25;;;10.70;64.50;;;;;;2369683;53;21049;-64
2024/03/24 09:25:59;;;;;;;6.22;2.30;;;10.80;64.70;;;;;;2369364;53;20942;-66
2024/03/24 09:28:25;;;;;;;4.35;2.25;;;10.80;64.70;;;;;;2368988;53;21305;-66
2024/03/24 09:30:58;;;;;;;6.53;1.95;;;10.80;64.90;;;;;;2369286;53;21440;-66
2024/03/24 09:33:24;;;;;;;4.15;1.85;;;10.80;64.40;;;;;;2368930;53;21005;-66
2024/03/24 09:35:51;;;;;;;5.68;1.83;;;10.90;64.60;;;;;;2368680;53;20938;-66
2024/03/24 09:38:17;;;;;;;3.33;1.35;;;10.90;64.50;;;;;;2369013;53;21022;-66
2024/03/24 09:40:44;;;;;;;4.57;1.90;;;10.90;64.40;;;;;;2368911;53;21380;-67
2024/03/24 09:43:10;;;;;;;3.25;1.40;;;11.00;64.40;;;;;;2368630;53;21733;-66
2024/03/24 09:45:37;;;;;;;6.28;1.52;;;11.00;64.40;;;;;;2369069;53;20958;-65
2024/03/24 09:48:03;;;;;;;4.10;1.50;;;11.10;64.60;;;;;;2348599;54;21031;-66
2024/03/24 09:50:30;;;;;;;3.83;1.30;;;11.10;64.40;;;;;;2368769;53;21026;-65
2024/03/24 09:52:57;;;;;;;3.58;1.60;;;11.10;64.40;;;;;;2369489;53;20977;-66
2024/03/24 09:55:27;;;;;;;3.50;1.40;;;11.20;64.20;;;;;;2369118;53;21186;-65
2024/03/24 09:57:55;;;;;;;4.20;1.42;;;11.30;64.00;;;;;;2369426;53;21006;-66
2024/03/24 10:00:28;;;;;;;3.47;1.27;;;11.30;64.10;;;;;;2368670;53;20930;-66
2024/03/24 10:02:56;;;;;;;4.07;1.33;;;11.30;64.00;;;;;;2369604;53;20949;-66
2024/03/24 10:05:24;;;;;;;5.22;1.55;;;11.30;63.40;;;;;;2368640;53;20998;-66
2024/03/24 10:07:51;;;;;;;3.80;1.35;;;11.30;63.20;;;;;;2369145;53;20905;-66
2024/03/24 10:10:17;;;;;;;5.78;1.55;;;11.30;63.20;;;;;;2367775;53;20942;-66
2024/03/24 10:12:53;;;;;;;5.05;1.80;;;11.30;62.90;;;;;;2368891;53;21017;-66
2024/03/24 10:15:25;;;;;;;5.70;1.80;;;11.30;62.50;;;;;;2349016;54;21558;-66
2024/03/24 10:18:04;;;;;;;3.72;1.60;;;11.30;63.00;;;;;;2369303;53;20942;-66
2024/03/24 10:20:31;;;;;;;3.47;1.50;;;11.40;62.60;;;;;;2368766;53;21013;-66
2024/03/24 10:22:57;;;;;;;4.25;1.60;;;11.40;63.40;;;;;;2369347;53;20993;-64
2024/03/24 10:25:25;;;;;;;3.45;1.15;;;11.40;63.30;;;;;;2368659;53;21237;-65
2024/03/24 10:27:51;;;;;;;6.93;1.42;;;11.40;63.20;;;;;;2369565;53;20985;-67
2024/03/24 10:30:18;;;;;;;4.30;1.40;;;11.40;62.90;;;;;;2349374;53;20999;-65
2024/03/24 10:32:44;;;;;;;2.60;1.23;;;11.40;62.90;;;;;;2367531;53;21475;-66
2024/03/24 10:35:10;;;;;;;3.22;1.30;;;11.50;62.90;;;;;;2369230;53;20953;-66
2024/03/24 10:37:37;;;;;;;3.58;1.37;;;11.40;62.80;;;;;;2369047;53;20939;-67
2024/03/24 10:40:05;;;;;;;2.62;1.20;;;11.50;62.90;;;;;;2368371;53;21386;-66
2024/03/24 10:42:32;;;;;;;4.12;1.50;;;11.50;63.00;;;;;;2369306;53;21503;-67
2024/03/24 10:45:04;;;;;;;3.22;1.50;;;11.50;63.10;;;;;;2369116;53;21202;-66
2024/03/24 10:47:34;;;;;;;3.60;1.37;;;11.50;62.80;;;;;;2368906;53;21013;-65
2024/03/24 10:50:00;;;;;;;3.95;1.20;;;11.50;62.80;;;;;;2368899;53;21266;-67
2024/03/24 10:52:29;;;;;;;3.83;1.40;;;11.50;62.90;;;;;;2368911;53;21369;-65
2024/03/24 10:54:58;;;;;;;6.00;1.40;;;11.50;62.80;;;;;;2370113;53;20982;-66
2024/03/24 10:57:28;;;;;;;3.72;1.30;;;11.60;62.70;;;;;;2369116;53;21042;-66
2024/03/24 10:59:55;;;;;;;6.15;1.40;;;11.50;62.80;;;;;;2369895;53;20921;-65
2024/03/24 11:02:23;;;;;;;3.33;1.35;;;11.60;62.90;;;;;;2368831;53;20962;-65
2024/03/24 11:04:50;;;;;;;6.20;1.48;;;11.60;63.00;;;;;;2350416;54;20982;-66
2024/03/24 11:07:17;;;;;;;4.03;1.40;;;11.60;63.00;;;;;;2367175;53;21005;-66
2024/03/24 11:09:44;;;;;;;4.25;1.58;;;11.60;63.00;;;;;;2368913;53;21756;-67
2024/03/24 11:12:10;;;;;;;3.75;2.30;;;11.60;63.10;;;;;;2369031;53;20969;-66
2024/03/24 11:14:36;;;;;;;3.50;1.30;;;11.60;63.10;;;;;;2368729;53;21742;-65
2024/03/24 11:17:03;;;;;;;3.90;1.40;;;11.70;63.30;;;;;;2369274;53;20938;-66
2024/03/24 11:19:29;;;;;;;4.43;1.30;;;11.70;63.30;;;;;;2369184;53;20954;-65
2024/03/24 11:21:59;;;;;;;4.40;1.40;;;11.70;63.20;;;;;;2368580;53;20942;-66
2024/03/24 11:24:26;;;;;;;5.93;1.37;;;11.80;63.10;;;;;;2368739;53;21890;-65
2024/03/24 11:26:52;;;;;;;4.87;1.35;;;11.80;63.00;;;;;;2369208;53;21550;-65
2024/03/24 11:29:50;;;;;;;2.78;1.20;;;11.80;62.90;;;;;;2368842;53;21391;-66
2024/03/24 11:32:18;;;;;;;3.30;1.00;;;11.90;62.20;;;;;;2368953;53;20922;-66
2024/03/24 11:34:57;;;;;;;2.62;1.10;;;11.90;62.70;;;;;;2368787;53;20946;-66
2024/03/24 11:37:27;;;;;;;4.75;1.30;;;12.00;61.90;;;;;;2354109;53;21493;-66
2024/03/24 11:39:54;;;;;;;3.22;1.02;;;12.00;62.40;;;;;;2362420;53;21399;-66
2024/03/24 11:42:33;;;;;;;4.00;1.17;;;12.00;62.50;;;;;;2369078;53;20992;-66
2024/03/24 11:48:32;;;;;;;4.45;1.30;;;12.00;62.10;;;;;;2368993;53;21423;-66
2024/03/24 11:51:01;;;;;;;4.03;1.10;;;12.20;60.60;;;;;;2367123;53;21008;-66
2024/03/24 11:53:29;;;;;;;4.62;1.05;;;12.20;62.20;;;;;;2351347;53;20986;-66
2024/03/24 11:55:57;;;;;;;3.55;0.88;;;12.20;62.00;;;;;;2369146;53;20926;-66
2024/03/24 11:58:25;;;;;;;2.10;0.65;;;12.20;62.10;;;;;;2371597;53;20989;-66
2024/03/24 12:00:54;;;;;;;2.92;1.10;;;12.20;62.20;;;;;;2368777;53;20942;-65
2024/03/24 12:03:22;;;;;;;5.45;1.23;;;12.30;62.00;;;;;;2368908;53;20982;-65
2024/03/24 12:05:52;;;;;;;2.17;0.90;;;12.30;61.60;;;;;;2369828;53;20953;-65
2024/03/24 12:08:19;;;;;;;3.55;1.12;;;12.30;61.40;;;;;;2368770;53;20926;-66
2024/03/24 12:10:45;;;;;;;4.50;1.12;;;12.30;61.50;;;;;;2368306;53;20942;-66
2024/03/24 12:13:12;;;;;;;4.75;1.10;;;12.40;61.00;;;;;;2369659;53;20950;-66
2024/03/24 12:15:39;;;;;;;3.87;0.95;;;12.40;61.10;;;;;;2370810;53;21689;-65
2024/03/24 12:18:08;;;;;;;3.40;0.98;;;12.40;60.90;;;;;;2345581;53;21206;-65
2024/03/24 12:20:36;;;;;;;2.05;0.70;;;12.40;60.80;;;;;;2369186;53;20910;-67
2024/03/24 12:23:04;;;;;;;4.65;1.00;;;12.40;61.20;;;;;;2369776;53;21029;-66
2024/03/24 12:25:33;;;;;;;4.43;0.90;;;12.40;61.20;;;;;;2369077;53;20997;-66
2024/03/24 12:28:00;;;;;;;2.42;0.98;;;12.60;61.00;;;;;;2369049;53;21001;-64
2024/03/24 12:30:26;;;;;;;3.22;0.93;;;12.50;60.20;;;;;;2368550;53;21827;-65
2024/03/24 12:32:56;;;;;;;3.45;0.90;;;12.50;60.30;;;;;;2369135;53;21025;-66
2024/03/24 12:35:22;;;;;;;2.78;0.98;;;12.50;60.20;;;;;;2369745;53;20989;-66
2024/03/24 12:37:50;;;;;;;4.45;0.93;;;12.50;60.10;;;;;;2369182;53;21002;-67
2024/03/24 12:40:20;;;;;;;4.35;1.10;;;12.50;60.00;;;;;;2369157;53;20954;-64
2024/03/24 12:42:49;;;;;;;4.37;0.98;;;12.50;60.00;;;;;;2369102;53;21009;-66
2024/03/24 12:45:16;;;;;;;2.12;0.73;;;12.50;59.90;;;;;;2369280;53;20902;-66
2024/03/24 12:47:43;;;;;;;3.50;1.02;;;12.50;60.20;;;;;;2368920;53;20954;-67
2024/03/24 12:50:28;;;;;;;2.53;0.80;;;12.60;60.40;;;;;;2369163;53;20978;-65
2024/03/24 12:54:31;;;;;;;4.03;1.12;;;12.60;59.50;;;;;;2369205;53;21439;-65
2024/03/24 12:56:57;;;;;;;5.70;0.90;;;12.60;58.60;;;;;;2369007;53;20962;-65
2024/03/24 12:59:24;;;;;;;9.45;3.60;;;12.60;59.50;;;;;;2369563;53;21265;-67